createdAt,value
2022-08-17T00:00:34.981Z,22.87
2022-08-17T00:05:34.695Z,22.83
2022-08-17T00:08:04.359Z,22.80
2022-08-17T00:10:32.587Z,22.78
2022-08-17T00:13:00.753Z,22.75
2022-08-17T00:15:28.808Z,22.73
2022-08-17T00:17:56.817Z,22.73
2022-08-17T00:20:30.486Z,22.66
2022-08-17T00:23:06.793Z,22.64
2022-08-17T00:25:34.788Z,22.62
2022-08-17T00:28:02.857Z,22.63
2022-08-17T00:30:30.973Z,22.65
2022-08-17T00:33:20.975Z,22.66
2022-08-17T00:35:49.925Z,22.68
2022-08-17T00:38:19.324Z,22.66
2022-08-17T00:40:49.014Z,22.66
2022-08-17T00:43:18.524Z,22.67
2022-08-17T00:45:46.512Z,22.69
2022-08-17T00:48:29.105Z,22.68
2022-08-17T00:51:02.045Z,22.60
2022-08-17T00:53:32.494Z,22.63
2022-08-17T00:56:01.687Z,22.59
2022-08-17T00:58:32.995Z,22.67
2022-08-17T01:01:04.249Z,22.70
2022-08-17T01:03:32.472Z,22.61
2022-08-17T01:06:01.096Z,22.70
2022-08-17T01:08:31.720Z,22.70
2022-08-17T01:11:02.248Z,22.70
2022-08-17T01:13:35.472Z,22.69
2022-08-17T01:16:09.588Z,22.71
2022-08-17T01:18:37.595Z,22.67
2022-08-17T01:21:08.671Z,22.70
2022-08-17T01:23:38.073Z,22.68
2022-08-17T01:26:06.656Z,22.65
2022-08-17T01:28:54.437Z,22.64
2022-08-17T01:31:23.311Z,22.64
2022-08-17T01:33:51.290Z,22.64
2022-08-17T01:36:19.312Z,22.62
2022-08-17T01:38:48.728Z,22.59
2022-08-17T01:41:16.926Z,22.51
2022-08-17T01:43:47.125Z,22.52
2022-08-17T01:46:16.750Z,22.50
2022-08-17T01:48:47.450Z,22.46
2022-08-17T01:51:16.143Z,22.44
2022-08-17T01:53:45.670Z,22.41
2022-08-17T01:56:16.655Z,22.39
2022-08-17T01:58:44.680Z,22.39
2022-08-17T02:01:14.798Z,22.38
2022-08-17T02:03:53.243Z,22.37
2022-08-17T02:06:28.501Z,22.13
2022-08-17T02:09:01.820Z,22.37
2022-08-17T02:11:33.753Z,22.41
2022-08-17T02:14:03.360Z,22.42
2022-08-17T02:16:37.703Z,22.43
2022-08-17T02:19:06.688Z,22.43
2022-08-17T02:21:34.675Z,22.43
2022-08-17T02:24:02.667Z,22.43
2022-08-17T02:26:32.078Z,22.45
2022-08-17T02:29:00.106Z,22.45
2022-08-17T02:31:28.221Z,22.47
2022-08-17T02:33:56.895Z,22.50
2022-08-17T02:36:32.292Z,22.47
2022-08-17T02:39:01.587Z,22.43
2022-08-17T02:41:29.684Z,22.44
2022-08-17T02:43:59.088Z,22.45
2022-08-17T02:46:27.213Z,22.46
2022-08-17T02:48:55.217Z,22.46
2022-08-17T02:51:23.268Z,22.48
2022-08-17T02:53:51.256Z,22.49
2022-08-17T02:56:19.281Z,22.43
2022-08-17T02:58:47.508Z,22.51
2022-08-17T03:01:16.988Z,22.51
2022-08-17T03:03:45.051Z,22.52
2022-08-17T03:06:13.046Z,22.51
2022-08-17T03:08:41.034Z,22.48
2022-08-17T03:11:09.095Z,22.44
2022-08-17T03:13:37.071Z,22.43
2022-08-17T03:16:05.440Z,22.43
2022-08-17T03:18:34.815Z,22.17
2022-08-17T03:21:04.444Z,22.42
2022-08-17T03:23:32.848Z,22.45
2022-08-17T03:26:00.977Z,22.50
2022-08-17T03:28:29.391Z,22.53
2022-08-17T03:30:57.342Z,22.55
2022-08-17T03:33:25.336Z,22.55
2022-08-17T03:35:54.746Z,22.55
2022-08-17T03:38:23.282Z,22.55
2022-08-17T03:40:57.256Z,22.57
2022-08-17T03:43:27.625Z,22.56
2022-08-17T03:46:33.980Z,22.56
2022-08-17T03:49:17.940Z,22.33
2022-08-17T03:52:04.692Z,22.48
2022-08-17T03:54:49.741Z,22.44
2022-08-17T03:57:19.292Z,22.41
2022-08-17T03:59:47.583Z,22.45
2022-08-17T04:02:18.904Z,22.44
2022-08-17T04:04:47.044Z,22.49
2022-08-17T04:07:16.401Z,22.50
2022-08-17T04:09:44.986Z,22.53
2022-08-17T04:12:13.578Z,22.52
2022-08-17T04:14:52.776Z,22.51
2022-08-17T04:17:22.680Z,22.50
2022-08-17T04:19:50.698Z,22.37
2022-08-17T04:22:33.039Z,22.46
2022-08-17T04:25:09.594Z,22.45
2022-08-17T04:27:37.711Z,22.43
2022-08-17T04:30:06.993Z,22.41
2022-08-17T04:33:05.447Z,22.37
2022-08-17T04:35:28.561Z,22.37
2022-08-17T04:37:57.978Z,22.37
2022-08-17T04:40:44.420Z,22.37
2022-08-17T04:43:13.774Z,22.36
2022-08-17T04:45:55.148Z,22.39
2022-08-17T04:48:27.922Z,22.40
2022-08-17T04:51:03.992Z,22.36
2022-08-17T04:53:33.330Z,22.34
2022-08-17T04:56:01.280Z,22.29
2022-08-17T04:58:29.581Z,22.31
2022-08-17T05:00:57.689Z,22.27
2022-08-17T05:03:25.724Z,22.29
2022-08-17T05:05:53.773Z,22.28
2022-08-17T05:08:22.146Z,22.28
2022-08-17T05:10:52.105Z,22.29
2022-08-17T05:13:20.968Z,22.31
2022-08-17T05:15:50.307Z,22.31
2022-08-17T05:18:18.361Z,22.37
2022-08-17T05:20:46.776Z,22.40
2022-08-17T05:23:15.878Z,22.40
2022-08-17T05:25:47.731Z,22.39
2022-08-17T05:28:17.645Z,22.16
2022-08-17T05:30:49.275Z,22.41
2022-08-17T05:33:18.860Z,22.42
2022-08-17T05:35:48.558Z,22.45
2022-08-17T05:38:16.688Z,22.48
2022-08-17T05:40:44.827Z,22.52
2022-08-17T05:43:14.807Z,22.44
2022-08-17T05:45:55.768Z,22.59
2022-08-17T05:48:39.046Z,22.63
2022-08-17T05:51:17.005Z,22.66
2022-08-17T05:53:47.663Z,22.70
2022-08-17T05:56:29.266Z,22.78
2022-08-17T05:59:01.534Z,22.77
2022-08-17T06:01:35.543Z,22.75
2022-08-17T06:04:10.642Z,22.83
2022-08-17T06:06:41.301Z,22.81
2022-08-17T06:09:26.608Z,22.84
2022-08-17T06:11:58.770Z,22.86
2022-08-17T06:14:40.436Z,22.90
2022-08-17T06:17:11.604Z,22.81
2022-08-17T06:19:41.179Z,22.91
2022-08-17T06:22:09.399Z,22.92
2022-08-17T06:24:39.092Z,22.93
2022-08-17T06:27:10.196Z,23.00
2022-08-17T06:29:43.936Z,23.04
2022-08-17T06:32:14.452Z,23.10
2022-08-17T06:34:43.728Z,23.17
2022-08-17T06:37:20.264Z,23.26
2022-08-17T06:39:51.745Z,23.29
2022-08-17T06:43:02.454Z,23.33
2022-08-17T06:45:15.283Z,23.42
2022-08-17T06:47:48.459Z,23.50
2022-08-17T06:50:19.045Z,23.56
2022-08-17T06:52:51.902Z,23.58
2022-08-17T06:55:22.483Z,23.59
2022-08-17T06:57:52.214Z,23.67
2022-08-17T07:00:22.361Z,23.73
2022-08-17T07:02:55.405Z,23.75
2022-08-17T07:05:24.801Z,23.52
2022-08-17T07:08:03.115Z,23.74
2022-08-17T07:10:36.491Z,23.77
2022-08-17T07:13:25.736Z,23.87
2022-08-17T07:15:57.145Z,23.96
2022-08-17T07:18:27.755Z,24.09
2022-08-17T07:20:58.633Z,24.19
2022-08-17T07:23:28.796Z,24.24
2022-08-17T07:26:05.182Z,24.42
2022-08-17T07:28:33.184Z,24.28
2022-08-17T07:31:01.192Z,24.50
2022-08-17T07:33:33.304Z,24.41
2022-08-17T07:36:01.720Z,24.45
2022-08-17T07:38:30.452Z,24.38
2022-08-17T07:41:03.895Z,24.33
2022-08-17T07:43:31.969Z,24.30
2022-08-17T07:46:39.359Z,24.26
2022-08-17T07:49:26.212Z,24.27
2022-08-17T07:52:00.452Z,24.29
2022-08-17T07:54:48.386Z,24.34
2022-08-17T07:57:31.350Z,24.38
2022-08-17T08:00:16.122Z,24.36
2022-08-17T08:02:45.877Z,24.28
2022-08-17T08:05:48.710Z,24.40
2022-08-17T08:08:22.638Z,24.41
2022-08-17T08:11:00.319Z,24.49
2022-08-17T08:13:29.669Z,24.55
2022-08-17T08:16:13.347Z,24.65
2022-08-17T08:18:55.338Z,24.77
2022-08-17T08:21:32.377Z,24.91
2022-08-17T08:24:02.505Z,24.96
2022-08-17T08:26:33.354Z,25.03
2022-08-17T08:29:05.912Z,25.09
2022-08-17T08:31:42.634Z,25.12
2022-08-17T08:34:46.335Z,25.17
2022-08-17T08:37:14.748Z,25.17
2022-08-17T08:39:52.790Z,25.07
2022-08-17T08:42:24.721Z,25.12
2022-08-17T08:45:00.852Z,25.14
2022-08-17T08:47:41.584Z,25.19
2022-08-17T08:50:37.599Z,25.24
2022-08-17T08:53:08.544Z,25.33
2022-08-17T08:55:45.411Z,25.35
2022-08-17T08:58:31.344Z,25.42
2022-08-17T09:01:06.220Z,25.47
2022-08-17T09:03:54.113Z,25.51
2022-08-17T09:06:28.700Z,25.60
2022-08-17T09:09:11.505Z,25.70
2022-08-17T09:12:01.442Z,25.79
2022-08-17T09:14:45.402Z,25.83
2022-08-17T09:17:16.565Z,25.82
2022-08-17T09:19:49.138Z,25.79
2022-08-17T09:22:23.960Z,25.83
2022-08-17T09:24:57.293Z,25.84
2022-08-17T09:27:28.336Z,25.88
2022-08-17T09:29:58.847Z,25.95
2022-08-17T09:32:30.134Z,26.06
2022-08-17T09:35:01.548Z,26.13
2022-08-17T09:37:31.973Z,26.37
2022-08-17T09:40:09.711Z,26.47
2022-08-17T09:42:41.302Z,26.40
2022-08-17T09:45:17.971Z,26.33
2022-08-17T09:47:49.568Z,26.26
2022-08-17T09:51:03.160Z,26.15
2022-08-17T09:53:10.005Z,26.13
2022-08-17T09:55:58.005Z,26.22
2022-08-17T09:58:29.427Z,26.37
2022-08-17T10:01:00.377Z,26.54
2022-08-17T10:03:41.421Z,26.64
2022-08-17T10:06:14.334Z,26.65
2022-08-17T10:08:47.146Z,26.60
2022-08-17T10:11:33.752Z,26.56
2022-08-17T10:14:36.018Z,26.52
2022-08-17T10:16:57.007Z,26.53
2022-08-17T10:19:26.861Z,26.62
2022-08-17T10:22:32.436Z,26.58
2022-08-17T10:25:22.994Z,26.67
2022-08-17T10:27:55.589Z,26.81
2022-08-17T10:30:27.601Z,26.94
2022-08-17T10:32:56.747Z,27.17
2022-08-17T10:35:34.136Z,27.28
2022-08-17T10:38:27.261Z,27.41
2022-08-17T10:40:57.300Z,27.48
2022-08-17T10:43:44.722Z,27.57
2022-08-17T10:46:52.722Z,27.61
2022-08-17T10:49:32.663Z,27.80
2022-08-17T10:52:01.837Z,28.04
2022-08-17T10:54:40.995Z,28.26
2022-08-17T10:57:40.390Z,28.42
2022-08-17T11:00:16.073Z,28.35
2022-08-17T11:02:50.978Z,28.44
2022-08-17T11:05:44.118Z,28.38
2022-08-17T11:08:59.578Z,28.44
2022-08-17T11:11:47.883Z,28.57
2022-08-17T11:14:24.025Z,28.67
2022-08-17T11:17:04.900Z,28.70
2022-08-17T11:19:58.810Z,28.80
2022-08-17T11:22:57.893Z,28.86
2022-08-17T11:25:34.350Z,28.85
2022-08-17T11:28:08.426Z,28.88
2022-08-17T11:30:46.952Z,28.90
2022-08-17T11:33:55.695Z,28.94
2022-08-17T11:36:45.459Z,28.93
2022-08-17T11:39:23.541Z,29.14
2022-08-17T11:41:56.383Z,29.30
2022-08-17T11:44:37.553Z,29.46
2022-08-17T11:47:35.787Z,29.58
2022-08-17T11:50:35.000Z,29.62
2022-08-17T11:53:04.595Z,29.77
2022-08-17T11:56:04.437Z,29.95
2022-08-17T11:58:38.538Z,29.99
2022-08-17T12:01:07.617Z,30.12
2022-08-17T12:03:53.752Z,30.32
2022-08-17T12:06:34.727Z,30.36
2022-08-17T12:09:08.895Z,30.31
2022-08-17T12:12:11.369Z,30.37
2022-08-17T12:15:05.937Z,30.54
2022-08-17T12:17:39.567Z,30.63
2022-08-17T12:20:12.406Z,30.71
2022-08-17T12:22:44.813Z,30.75
2022-08-17T12:25:16.478Z,30.76
2022-08-17T12:28:04.839Z,30.93
2022-08-17T12:30:34.439Z,31.10
2022-08-17T12:33:02.561Z,31.30
2022-08-17T12:35:33.135Z,31.49
2022-08-17T12:38:03.074Z,31.66
2022-08-17T12:40:33.013Z,31.57
2022-08-17T12:43:02.073Z,31.87
2022-08-17T12:45:33.660Z,31.95
2022-08-17T12:48:02.753Z,31.97
2022-08-17T12:50:32.052Z,31.96
2022-08-17T12:53:02.571Z,31.97
2022-08-17T12:55:35.717Z,32.02
2022-08-17T12:58:03.734Z,32.12
2022-08-17T13:00:32.936Z,32.12
2022-08-17T13:03:01.486Z,32.10
2022-08-17T13:05:31.107Z,32.16
2022-08-17T13:08:00.284Z,32.08
2022-08-17T13:10:32.879Z,32.03
2022-08-17T13:13:05.433Z,32.17
2022-08-17T13:15:36.920Z,32.34
2022-08-17T13:18:07.689Z,32.76
2022-08-17T13:20:35.974Z,32.94
2022-08-17T13:23:12.061Z,33.12
2022-08-17T13:25:40.748Z,33.30
2022-08-17T13:28:18.620Z,33.63
2022-08-17T13:31:22.307Z,33.71
2022-08-17T13:33:50.349Z,33.74
2022-08-17T13:36:28.210Z,33.71
2022-08-17T13:39:06.913Z,33.77
2022-08-17T13:41:36.334Z,34.05
2022-08-17T13:44:34.081Z,34.17
2022-08-17T13:47:02.362Z,34.26
2022-08-17T13:49:48.129Z,34.54
2022-08-17T13:52:33.472Z,34.62
2022-08-17T13:55:01.860Z,34.75
2022-08-17T13:57:29.860Z,35.16
2022-08-17T14:00:10.325Z,35.59
2022-08-17T14:02:38.412Z,35.75
2022-08-17T14:05:06.800Z,35.45
2022-08-17T14:07:35.928Z,35.06
2022-08-17T14:10:07.402Z,34.61
2022-08-17T14:12:35.776Z,34.59
2022-08-17T14:15:05.974Z,34.74
2022-08-17T14:17:38.636Z,35.20
2022-08-17T14:20:09.447Z,35.64
2022-08-17T14:22:38.594Z,35.81
2022-08-17T14:25:08.570Z,35.94
2022-08-17T14:27:51.895Z,35.94
2022-08-17T14:30:24.356Z,35.72
2022-08-17T14:32:52.956Z,35.87
2022-08-17T14:35:22.373Z,35.93
2022-08-17T14:37:50.675Z,36.05
2022-08-17T14:40:20.865Z,36.30
2022-08-17T14:42:49.895Z,36.60
2022-08-17T14:45:31.812Z,36.79
2022-08-17T14:48:04.196Z,36.81
2022-08-17T14:50:35.565Z,36.92
2022-08-17T14:53:04.632Z,37.05
2022-08-17T14:55:32.704Z,37.28
2022-08-17T14:58:00.827Z,37.41
2022-08-17T15:00:28.808Z,37.25
2022-08-17T15:02:58.404Z,36.99
2022-08-17T15:05:31.671Z,36.93
2022-08-17T15:07:59.899Z,37.03
2022-08-17T15:10:28.041Z,37.04
2022-08-17T15:12:56.243Z,36.86
2022-08-17T15:15:24.212Z,36.47
2022-08-17T15:17:52.439Z,35.83
2022-08-17T15:20:21.918Z,35.49
2022-08-17T15:22:55.004Z,35.36
2022-08-17T15:25:23.369Z,35.58
2022-08-17T15:27:51.872Z,36.00
2022-08-17T15:30:20.301Z,36.36
2022-08-17T15:32:54.143Z,36.68
2022-08-17T15:35:27.321Z,37.05
2022-08-17T15:38:07.845Z,37.01
2022-08-17T15:40:38.648Z,37.18
2022-08-17T15:43:07.403Z,37.27
2022-08-17T15:45:35.498Z,37.29
2022-08-17T15:48:03.828Z,37.36
2022-08-17T15:50:32.030Z,37.45
2022-08-17T15:53:01.738Z,37.57
2022-08-17T15:55:30.497Z,37.86
2022-08-17T15:57:58.579Z,38.13
2022-08-17T16:00:28.446Z,38.35
2022-08-17T16:03:16.041Z,38.33
2022-08-17T16:05:44.922Z,38.23
2022-08-17T16:08:20.731Z,38.32
2022-08-17T16:10:49.391Z,38.39
2022-08-17T16:13:18.192Z,38.52
2022-08-17T16:15:56.633Z,38.66
2022-08-17T16:18:26.455Z,38.60
2022-08-17T16:20:55.111Z,38.48
2022-08-17T16:23:24.561Z,37.96
2022-08-17T16:25:54.272Z,37.59
2022-08-17T16:28:35.773Z,37.43
2022-08-17T16:31:04.147Z,37.64
2022-08-17T16:33:32.568Z,37.92
2022-08-17T16:36:01.089Z,38.06
2022-08-17T16:38:30.607Z,38.16
2022-08-17T16:40:58.637Z,37.56
2022-08-17T16:43:26.667Z,37.21
2022-08-17T16:45:54.698Z,36.84
2022-08-17T16:48:22.710Z,36.56
2022-08-17T16:51:03.230Z,36.50
2022-08-17T16:53:33.928Z,36.63
2022-08-17T16:56:01.943Z,36.62
2022-08-17T16:58:30.154Z,36.18
2022-08-17T17:00:59.485Z,35.98
2022-08-17T17:03:28.036Z,36.24
2022-08-17T17:06:01.158Z,36.51
2022-08-17T17:08:34.800Z,36.48
2022-08-17T17:11:09.017Z,36.58
2022-08-17T17:13:40.476Z,36.49
2022-08-17T17:16:15.695Z,36.91
2022-08-17T17:18:44.879Z,37.02
2022-08-17T17:21:14.509Z,37.21
2022-08-17T17:23:51.505Z,37.27
2022-08-17T17:26:27.293Z,36.90
2022-08-17T17:29:02.157Z,36.13
2022-08-17T17:31:33.953Z,35.18
2022-08-17T17:34:04.018Z,34.09
2022-08-17T17:36:36.455Z,33.13
2022-08-17T17:39:08.326Z,32.37
2022-08-17T17:41:40.941Z,31.82
2022-08-17T17:44:10.954Z,31.33
2022-08-17T17:46:41.050Z,30.86
2022-08-17T17:49:11.231Z,30.48
2022-08-17T17:51:59.697Z,30.19
2022-08-17T17:54:39.454Z,29.92
2022-08-17T17:57:11.008Z,29.66
2022-08-17T17:59:44.111Z,29.43
2022-08-17T18:02:38.956Z,29.31
2022-08-17T18:05:11.435Z,29.20
2022-08-17T18:07:42.140Z,29.04
2022-08-17T18:10:29.871Z,29.01
2022-08-17T18:13:00.961Z,28.77
2022-08-17T18:15:31.472Z,28.65
2022-08-17T18:18:04.269Z,28.56
2022-08-17T18:20:53.086Z,28.33
2022-08-17T18:23:27.776Z,28.12
2022-08-17T18:25:58.809Z,27.98
2022-08-17T18:28:28.447Z,27.88
2022-08-17T18:31:07.943Z,27.72
2022-08-17T18:33:36.153Z,27.54
2022-08-17T18:36:04.608Z,27.45
2022-08-17T18:38:33.929Z,27.35
2022-08-17T18:41:20.538Z,27.24
2022-08-17T18:44:00.233Z,27.14
2022-08-17T18:46:30.153Z,27.01
2022-08-17T18:48:59.713Z,26.95
2022-08-17T18:51:41.780Z,26.88
2022-08-17T18:54:16.761Z,26.87
2022-08-17T18:56:49.647Z,26.86
2022-08-17T18:59:26.607Z,26.85
2022-08-17T19:02:16.028Z,26.85
2022-08-17T19:05:03.349Z,26.78
2022-08-17T19:07:32.482Z,26.71
2022-08-17T19:10:06.870Z,26.62
2022-08-17T19:12:39.137Z,26.45
2022-08-17T19:15:08.606Z,26.37
2022-08-17T19:17:39.278Z,26.28
2022-08-17T19:20:11.864Z,26.16
2022-08-17T19:22:53.650Z,26.09
2022-08-17T19:25:24.031Z,25.99
2022-08-17T19:27:59.141Z,25.93
2022-08-17T19:30:27.831Z,25.89
2022-08-17T19:32:57.046Z,25.90
2022-08-17T19:35:26.082Z,25.92
2022-08-17T19:38:02.696Z,25.93
2022-08-17T19:40:52.208Z,25.98
2022-08-17T19:43:24.851Z,26.00
2022-08-17T19:45:58.367Z,25.98
2022-08-17T19:48:35.498Z,25.97
2022-08-17T19:51:06.600Z,25.96
2022-08-17T19:54:02.061Z,25.93
2022-08-17T19:56:27.515Z,25.90
2022-08-17T19:59:01.163Z,25.90
2022-08-17T20:01:35.320Z,25.87
2022-08-17T20:04:08.037Z,25.84
2022-08-17T20:06:38.333Z,25.81
2022-08-17T20:09:19.289Z,25.77
2022-08-17T20:11:48.792Z,25.71
2022-08-17T20:14:20.396Z,25.66
2022-08-17T20:16:48.447Z,25.58
2022-08-17T20:19:23.848Z,25.52
2022-08-17T20:21:55.232Z,25.21
2022-08-17T20:24:26.609Z,25.38
2022-08-17T20:26:58.489Z,25.31
2022-08-17T20:29:39.694Z,25.10
2022-08-17T20:32:19.459Z,25.04
2022-08-17T20:34:48.348Z,25.23
2022-08-17T20:37:31.194Z,25.05
2022-08-17T20:40:25.958Z,25.12
2022-08-17T20:42:53.968Z,25.06
2022-08-17T20:45:53.769Z,25.05
2022-08-17T20:48:37.536Z,24.98
2022-08-17T20:51:28.219Z,25.02
2022-08-17T20:54:37.760Z,25.01
2022-08-17T20:57:06.167Z,25.01
2022-08-17T20:59:59.400Z,25.01
2022-08-17T21:02:29.470Z,24.98
2022-08-17T21:05:30.060Z,24.97
2022-08-17T21:07:59.924Z,24.95
2022-08-17T21:10:35.617Z,24.98
2022-08-17T21:13:36.836Z,24.99
2022-08-17T21:16:08.941Z,25.00
2022-08-17T21:18:41.891Z,25.04
2022-08-17T21:21:17.882Z,25.05
2022-08-17T21:24:06.286Z,25.07
2022-08-17T21:26:50.491Z,25.06
2022-08-17T21:29:31.827Z,25.04
2022-08-17T21:32:24.635Z,25.01
2022-08-17T21:35:28.625Z,24.93
2022-08-17T21:38:00.150Z,24.85
2022-08-17T21:40:29.407Z,24.85
2022-08-17T21:43:00.419Z,24.88
2022-08-17T21:45:31.273Z,24.90
2022-08-17T21:48:11.192Z,24.90
2022-08-17T21:50:41.723Z,24.93
2022-08-17T21:53:10.001Z,24.99
2022-08-17T21:55:38.044Z,25.01
2022-08-17T21:58:14.073Z,25.03
2022-08-17T22:00:44.442Z,25.07
2022-08-17T22:03:23.729Z,25.04
2022-08-17T22:05:53.185Z,24.98
2022-08-17T22:08:22.388Z,24.98
2022-08-17T22:10:51.336Z,24.96
2022-08-17T22:13:21.712Z,24.86
2022-08-17T22:15:51.781Z,24.78
2022-08-17T22:18:21.387Z,24.72
2022-08-17T22:20:53.462Z,24.63
2022-08-17T22:23:45.477Z,24.52
2022-08-17T22:26:14.535Z,24.57
2022-08-17T22:28:45.612Z,24.62
2022-08-17T22:31:14.789Z,24.61
2022-08-17T22:33:44.990Z,24.64
2022-08-17T22:36:26.923Z,24.69
2022-08-17T22:38:59.118Z,24.68
2022-08-17T22:41:36.949Z,24.68
2022-08-17T22:44:10.242Z,24.68
2022-08-17T22:46:42.845Z,24.63
2022-08-17T22:49:10.876Z,24.67
2022-08-17T22:51:38.938Z,24.70
2022-08-17T22:54:34.417Z,24.72
2022-08-17T22:57:22.085Z,24.48
2022-08-17T22:59:51.192Z,24.72
2022-08-17T23:02:24.422Z,24.70
2022-08-17T23:04:54.513Z,24.71
2022-08-17T23:07:22.571Z,24.71
2022-08-17T23:09:52.836Z,24.65
2022-08-17T23:12:24.481Z,24.58
2022-08-17T23:14:56.890Z,24.50
2022-08-17T23:17:24.979Z,24.44
2022-08-17T23:19:53.132Z,24.44
2022-08-17T23:22:21.096Z,24.45
2022-08-17T23:24:50.611Z,24.46
2022-08-17T23:27:20.061Z,24.21
2022-08-17T23:29:48.694Z,24.37
2022-08-17T23:32:17.574Z,24.23
2022-08-17T23:34:48.167Z,24.19
2022-08-17T23:37:16.821Z,24.09
2022-08-17T23:39:45.745Z,23.99
2022-08-17T23:42:15.990Z,23.90
2022-08-17T23:44:45.363Z,23.83
2022-08-17T23:47:13.411Z,23.73
2022-08-17T23:49:41.401Z,23.64
2022-08-17T23:52:12.639Z,23.57
2022-08-17T23:54:44.688Z,23.49
2022-08-17T23:57:13.186Z,23.42
2022-08-17T23:59:41.264Z,23.37
